createdAt,value
2022-11-15T00:01:35.175Z,53.30
2022-11-15T00:04:01.929Z,53.50
2022-11-15T00:06:28.665Z,53.50
2022-11-15T00:08:55.375Z,53.30
2022-11-15T00:11:22.081Z,53.40
2022-11-15T00:13:48.853Z,53.40
2022-11-15T00:16:15.818Z,53.40
2022-11-15T00:18:49.309Z,53.50
2022-11-15T00:21:18.273Z,53.50
2022-11-15T00:23:44.986Z,53.40
2022-11-15T00:26:13.367Z,53.50
2022-11-15T00:28:40.297Z,53.40
2022-11-15T00:31:09.789Z,53.50
2022-11-15T00:33:36.524Z,53.50
2022-11-15T00:36:06.178Z,53.40
2022-11-15T00:38:33.525Z,53.30
2022-11-15T00:41:03.865Z,53.40
2022-11-15T00:43:34.807Z,53.30
2022-11-15T00:46:01.859Z,53.40
2022-11-15T00:48:28.609Z,53.50
2022-11-15T00:50:55.335Z,53.30
2022-11-15T00:53:23.415Z,53.30
2022-11-15T00:55:50.193Z,53.40
2022-11-15T00:58:16.983Z,53.30
2022-11-15T01:00:43.749Z,53.30
2022-11-15T01:03:10.530Z,53.20
2022-11-15T01:05:38.293Z,53.30
2022-11-15T01:08:05.395Z,53.10
2022-11-15T01:10:33.457Z,53.20
2022-11-15T01:13:00.198Z,53.20
2022-11-15T01:15:27.020Z,53.30
2022-11-15T01:17:53.750Z,53.30
2022-11-15T01:20:20.489Z,53.40
2022-11-15T01:22:47.235Z,53.20
2022-11-15T01:25:14.034Z,53.30
2022-11-15T01:27:42.874Z,53.40
2022-11-15T01:30:10.365Z,53.40
2022-11-15T01:32:37.086Z,53.30
2022-11-15T01:35:04.314Z,53.20
2022-11-15T01:37:31.052Z,53.20
2022-11-15T01:39:57.818Z,53.50
2022-11-15T01:42:24.507Z,53.30
2022-11-15T01:44:53.041Z,53.30
2022-11-15T01:47:23.115Z,53.40
2022-11-15T01:49:55.567Z,53.40
2022-11-15T01:52:24.716Z,53.60
2022-11-15T01:54:56.645Z,53.40
2022-11-15T01:57:23.607Z,53.40
2022-11-15T01:59:51.766Z,53.30
2022-11-15T02:02:18.553Z,53.30
2022-11-15T02:04:47.322Z,53.40
2022-11-15T02:07:17.374Z,53.20
2022-11-15T02:09:45.070Z,53.30
2022-11-15T02:12:15.034Z,53.20
2022-11-15T02:14:43.815Z,53.30
2022-11-15T02:17:31.384Z,53.30
2022-11-15T02:20:21.169Z,53.30
2022-11-15T02:23:05.176Z,53.40
2022-11-15T02:25:40.245Z,53.30
2022-11-15T02:28:37.818Z,53.30
2022-11-15T02:31:13.022Z,53.30
2022-11-15T02:33:48.411Z,53.30
2022-11-15T02:36:20.945Z,53.40
2022-11-15T02:38:55.394Z,53.20
2022-11-15T02:41:29.289Z,53.20
2022-11-15T02:44:01.697Z,53.20
2022-11-15T02:46:35.820Z,53.40
2022-11-15T02:49:02.598Z,53.20
2022-11-15T02:51:29.347Z,53.40
2022-11-15T02:53:56.070Z,53.40
2022-11-15T02:56:22.844Z,53.50
2022-11-15T02:59:13.522Z,53.40
2022-11-15T03:01:53.036Z,53.50
2022-11-15T03:04:29.274Z,53.30
2022-11-15T03:07:03.526Z,53.30
2022-11-15T03:09:35.869Z,53.30
2022-11-15T03:12:12.672Z,53.50
2022-11-15T03:14:48.157Z,53.30
2022-11-15T03:17:23.574Z,53.40
2022-11-15T03:19:53.970Z,53.50
2022-11-15T03:22:24.108Z,53.60
2022-11-15T03:24:55.090Z,53.40
2022-11-15T03:27:27.007Z,53.20
2022-11-15T03:29:57.093Z,53.10
2022-11-15T03:32:28.873Z,53.30
2022-11-15T03:34:59.825Z,53.10
2022-11-15T03:37:33.576Z,53.30
2022-11-15T03:40:00.710Z,53.20
2022-11-15T03:42:32.379Z,53.30
2022-11-15T03:45:04.680Z,53.30
2022-11-15T03:47:37.293Z,53.40
2022-11-15T03:50:09.165Z,53.40
2022-11-15T03:52:36.096Z,53.30
2022-11-15T03:55:05.388Z,53.40
2022-11-15T03:57:32.163Z,53.20
2022-11-15T03:59:58.956Z,53.00
2022-11-15T04:02:25.749Z,53.10
2022-11-15T04:04:53.847Z,53.30
2022-11-15T04:07:20.597Z,53.80
2022-11-15T04:09:47.579Z,53.10
2022-11-15T04:12:14.295Z,53.20
2022-11-15T04:14:41.061Z,53.20
2022-11-15T04:17:07.877Z,53.10
2022-11-15T04:19:34.653Z,53.00
2022-11-15T04:22:02.684Z,53.10
2022-11-15T04:24:29.594Z,53.20
2022-11-15T04:26:56.298Z,53.20
2022-11-15T04:29:23.053Z,53.50
2022-11-15T04:31:49.787Z,53.20
2022-11-15T04:34:16.538Z,53.20
2022-11-15T04:36:43.267Z,53.10
2022-11-15T04:39:11.321Z,53.00
2022-11-15T04:41:38.050Z,53.30
2022-11-15T04:44:04.918Z,53.30
2022-11-15T04:46:31.698Z,53.30
2022-11-15T04:48:59.399Z,53.20
2022-11-15T04:51:26.604Z,53.40
2022-11-15T04:53:53.502Z,53.30
2022-11-15T04:56:21.577Z,53.30
2022-11-15T04:58:49.767Z,53.40
2022-11-15T05:01:17.250Z,53.30
2022-11-15T05:03:44.662Z,53.50
2022-11-15T05:06:11.409Z,53.30
2022-11-15T05:08:38.293Z,53.30
2022-11-15T05:11:05.071Z,53.40
2022-11-15T05:13:33.469Z,53.20
2022-11-15T05:16:00.326Z,53.30
2022-11-15T05:18:27.635Z,53.30
2022-11-15T05:20:54.331Z,53.40
2022-11-15T05:23:21.071Z,53.20
2022-11-15T05:25:47.989Z,53.80
2022-11-15T05:28:14.739Z,53.10
2022-11-15T05:30:42.870Z,53.10
2022-11-15T05:33:09.645Z,53.20
2022-11-15T05:35:40.520Z,53.20
2022-11-15T05:38:07.479Z,53.50
2022-11-15T05:40:35.335Z,53.40
2022-11-15T05:43:03.852Z,53.20
2022-11-15T05:45:31.032Z,53.20
2022-11-15T05:48:01.920Z,53.10
2022-11-15T05:50:28.877Z,53.10
2022-11-15T05:52:59.659Z,53.00
2022-11-15T05:55:29.184Z,53.00
2022-11-15T05:57:56.353Z,53.00
2022-11-15T06:00:23.224Z,52.90
2022-11-15T06:02:49.963Z,53.20
2022-11-15T06:05:18.121Z,53.00
2022-11-15T06:07:44.818Z,53.20
2022-11-15T06:10:11.809Z,53.20
2022-11-15T06:12:38.589Z,53.10
2022-11-15T06:15:06.068Z,53.10
2022-11-15T06:17:32.900Z,53.20
2022-11-15T06:19:59.670Z,53.40
2022-11-15T06:22:27.755Z,53.20
2022-11-15T06:24:54.457Z,53.20
2022-11-15T06:27:21.187Z,53.00
2022-11-15T06:29:47.928Z,53.10
2022-11-15T06:32:14.668Z,53.20
2022-11-15T06:34:41.441Z,53.40
2022-11-15T06:37:08.178Z,53.30
2022-11-15T06:39:36.265Z,53.30
2022-11-15T06:42:02.984Z,53.40
2022-11-15T06:44:29.694Z,53.30
2022-11-15T06:46:56.427Z,53.50
2022-11-15T06:49:23.171Z,53.50
2022-11-15T06:51:49.869Z,53.20
2022-11-15T06:54:16.597Z,53.30
2022-11-15T06:56:44.657Z,53.30
2022-11-15T06:59:11.409Z,54.20
2022-11-15T07:01:38.298Z,53.30
2022-11-15T07:04:05.355Z,53.60
2022-11-15T07:06:32.218Z,53.30
2022-11-15T07:08:58.982Z,54.40
2022-11-15T07:11:25.718Z,54.60
2022-11-15T07:13:53.825Z,54.50
2022-11-15T07:16:20.816Z,54.50
2022-11-15T07:18:47.548Z,54.50
2022-11-15T07:21:14.260Z,53.90
2022-11-15T07:23:41.193Z,53.70
2022-11-15T07:26:08.965Z,53.80
2022-11-15T07:28:36.246Z,53.60
2022-11-15T07:31:05.835Z,53.60
2022-11-15T07:33:32.968Z,53.70
2022-11-15T07:36:00.632Z,53.50
2022-11-15T07:38:27.361Z,53.50
2022-11-15T07:40:57.934Z,53.50
2022-11-15T07:43:24.671Z,53.70
2022-11-15T07:45:56.023Z,53.90
2022-11-15T07:48:32.149Z,54.00
2022-11-15T07:51:12.796Z,53.60
2022-11-15T07:53:40.738Z,53.50
2022-11-15T07:56:07.892Z,53.80
2022-11-15T07:58:34.847Z,53.80
2022-11-15T08:01:04.194Z,53.80
2022-11-15T08:03:34.974Z,53.80
2022-11-15T08:06:02.500Z,53.90
2022-11-15T08:08:29.448Z,53.70
2022-11-15T08:10:57.967Z,53.60
2022-11-15T08:13:24.667Z,54.20
2022-11-15T08:15:57.393Z,53.70
2022-11-15T08:18:25.448Z,54.20
2022-11-15T08:20:53.499Z,54.20
2022-11-15T08:23:20.230Z,54.00
2022-11-15T08:25:47.037Z,54.10
2022-11-15T08:28:13.776Z,54.50
2022-11-15T08:30:43.276Z,54.30
2022-11-15T08:33:12.371Z,54.50
2022-11-15T08:35:39.395Z,54.30
2022-11-15T08:38:07.465Z,54.40
2022-11-15T08:40:34.194Z,54.80
2022-11-15T08:43:00.930Z,55.00
2022-11-15T08:45:28.216Z,54.50
2022-11-15T08:47:54.983Z,54.90
2022-11-15T08:50:21.795Z,54.80
2022-11-15T08:52:48.520Z,54.90
2022-11-15T08:55:17.740Z,54.80
2022-11-15T08:57:44.764Z,55.20
2022-11-15T09:00:12.755Z,55.60
2022-11-15T09:02:40.367Z,55.40
2022-11-15T09:05:08.246Z,55.50
2022-11-15T09:07:35.050Z,55.60
2022-11-15T09:10:01.986Z,55.60
2022-11-15T09:12:30.212Z,55.70
2022-11-15T09:14:56.937Z,56.10
2022-11-15T09:17:25.212Z,56.00
2022-11-15T09:19:52.218Z,55.70
2022-11-15T09:22:19.139Z,55.50
2022-11-15T09:24:45.938Z,56.00
2022-11-15T09:27:12.764Z,56.10
2022-11-15T09:29:40.872Z,55.90
2022-11-15T09:32:07.598Z,56.30
2022-11-15T09:34:34.393Z,56.40
2022-11-15T09:37:01.161Z,56.70
2022-11-15T09:39:27.887Z,56.70
2022-11-15T09:42:18.564Z,56.70
2022-11-15T09:44:58.030Z,57.00
2022-11-15T09:47:45.958Z,56.60
2022-11-15T09:50:15.409Z,56.50
2022-11-15T09:52:45.313Z,56.50
2022-11-15T09:55:14.855Z,56.40
2022-11-15T09:57:51.145Z,56.50
2022-11-15T10:03:12.892Z,57.20
2022-11-15T10:05:41.702Z,56.50
2022-11-15T10:08:22.259Z,56.30
2022-11-15T10:11:09.699Z,56.50
2022-11-15T10:13:44.246Z,56.50
2022-11-15T10:16:38.453Z,56.90
2022-11-15T10:19:13.430Z,55.90
2022-11-15T10:21:50.594Z,55.80
2022-11-15T10:24:20.896Z,55.70
2022-11-15T10:26:48.864Z,55.60
2022-11-15T10:29:19.885Z,55.00
2022-11-15T10:31:48.783Z,55.20
2022-11-15T10:34:17.453Z,55.00
2022-11-15T10:36:50.293Z,54.70
2022-11-15T10:39:17.326Z,54.90
2022-11-15T10:41:44.147Z,54.80
2022-11-15T10:44:24.114Z,54.70
2022-11-15T10:47:27.011Z,54.50
2022-11-15T10:49:56.162Z,54.50
2022-11-15T10:52:23.016Z,54.60
2022-11-15T10:54:52.056Z,54.30
2022-11-15T10:57:20.987Z,54.30
2022-11-15T10:59:49.945Z,54.40
2022-11-15T11:02:32.861Z,54.20
2022-11-15T11:05:00.736Z,54.30
2022-11-15T11:07:29.379Z,53.80
2022-11-15T11:10:01.533Z,53.70
2022-11-15T11:12:30.467Z,53.90
2022-11-15T11:14:57.189Z,53.90
2022-11-15T11:17:46.013Z,53.60
2022-11-15T11:20:21.844Z,54.00
2022-11-15T11:23:01.698Z,53.70
2022-11-15T11:25:35.368Z,53.80
2022-11-15T11:28:34.529Z,54.00
2022-11-15T11:31:13.941Z,53.70
2022-11-15T11:33:50.482Z,54.00
2022-11-15T11:36:25.625Z,53.90
2022-11-15T11:38:59.637Z,54.00
2022-11-15T11:41:44.458Z,53.90
2022-11-15T11:44:25.106Z,53.70
2022-11-15T11:46:57.159Z,53.80
2022-11-15T11:49:31.920Z,53.80
2022-11-15T11:52:05.969Z,53.60
2022-11-15T11:54:39.021Z,53.70
2022-11-15T11:57:11.800Z,53.60
2022-11-15T11:59:44.058Z,53.60
2022-11-15T12:02:19.047Z,53.50
2022-11-15T12:04:51.921Z,53.30
2022-11-15T12:07:22.526Z,53.10
2022-11-15T12:09:55.235Z,52.90
2022-11-15T12:12:28.512Z,52.70
2022-11-15T12:14:58.129Z,52.50
2022-11-15T12:17:26.959Z,52.40
2022-11-15T12:19:58.451Z,52.30
2022-11-15T12:22:33.960Z,52.40
2022-11-15T12:25:04.154Z,52.10
2022-11-15T12:27:39.474Z,52.00
2022-11-15T12:30:13.641Z,51.90
2022-11-15T12:32:49.684Z,51.90
2022-11-15T12:35:27.410Z,51.80
2022-11-15T12:37:54.737Z,51.90
2022-11-15T12:40:29.607Z,51.90
2022-11-15T12:43:02.677Z,51.90
2022-11-15T12:45:32.013Z,51.70
2022-11-15T12:48:46.960Z,51.80
2022-11-15T12:51:15.091Z,51.60
2022-11-15T12:53:41.896Z,51.70
2022-11-15T12:56:25.003Z,51.50
2022-11-15T12:58:57.087Z,51.30
2022-11-15T13:01:58.536Z,51.40
2022-11-15T13:04:30.659Z,51.00
2022-11-15T13:07:01.384Z,51.30
2022-11-15T13:09:53.986Z,51.00
2022-11-15T13:12:50.688Z,50.80
2022-11-15T13:15:41.102Z,50.80
2022-11-15T13:18:35.092Z,50.90
2022-11-15T13:21:03.455Z,50.80
2022-11-15T13:23:32.029Z,51.00
2022-11-15T13:26:12.282Z,50.90
2022-11-15T13:28:43.459Z,50.60
2022-11-15T13:31:27.580Z,50.80
2022-11-15T13:33:57.890Z,50.40
2022-11-15T13:36:27.128Z,50.80
2022-11-15T13:39:00.816Z,50.60
2022-11-15T13:41:29.276Z,50.70
2022-11-15T13:43:57.634Z,50.70
2022-11-15T13:46:25.825Z,50.70
2022-11-15T13:48:55.087Z,50.90
2022-11-15T13:51:27.203Z,50.80
2022-11-15T13:53:59.804Z,50.80
2022-11-15T13:56:28.447Z,50.90
2022-11-15T13:58:55.363Z,51.00
2022-11-15T14:01:23.698Z,51.20
2022-11-15T14:03:57.236Z,51.10
2022-11-15T14:06:25.939Z,51.20
2022-11-15T14:09:15.988Z,51.20
2022-11-15T14:11:51.813Z,51.20
2022-11-15T14:14:22.442Z,51.40
2022-11-15T14:16:51.025Z,51.60
2022-11-15T14:19:36.924Z,51.60
2022-11-15T14:22:18.520Z,51.60
2022-11-15T14:24:48.311Z,51.80
2022-11-15T14:27:32.825Z,51.80
2022-11-15T14:29:59.584Z,51.70
2022-11-15T14:32:28.580Z,51.80
2022-11-15T14:34:56.955Z,51.90
2022-11-15T14:37:26.584Z,51.90
2022-11-15T14:39:55.140Z,51.90
2022-11-15T14:42:25.424Z,51.90
2022-11-15T14:44:52.636Z,51.90
2022-11-15T14:47:19.782Z,51.90
2022-11-15T14:49:46.797Z,52.50
2022-11-15T14:52:31.821Z,51.90
2022-11-15T14:55:01.782Z,51.60
2022-11-15T14:57:28.642Z,51.80
2022-11-15T14:59:55.377Z,51.80
2022-11-15T15:02:23.710Z,51.70
2022-11-15T15:04:50.957Z,51.60
2022-11-15T15:07:18.900Z,51.70
2022-11-15T15:09:46.451Z,51.50
2022-11-15T15:12:19.474Z,51.60
2022-11-15T15:14:47.431Z,51.60
2022-11-15T15:17:14.352Z,51.60
2022-11-15T15:19:41.555Z,51.60
2022-11-15T15:22:13.757Z,51.60
2022-11-15T15:24:40.750Z,51.50
2022-11-15T15:27:07.470Z,51.60
2022-11-15T15:29:35.603Z,51.60
2022-11-15T15:32:02.366Z,51.70
2022-11-15T15:34:29.077Z,52.30
2022-11-15T15:37:08.894Z,51.70
2022-11-15T15:39:35.769Z,51.60
2022-11-15T15:42:02.574Z,51.70
2022-11-15T15:44:29.314Z,51.80
2022-11-15T15:46:57.486Z,51.90
2022-11-15T15:49:24.210Z,51.90
2022-11-15T15:51:50.937Z,52.10
2022-11-15T15:54:17.732Z,52.10
2022-11-15T15:56:44.479Z,52.20
2022-11-15T15:59:11.181Z,52.20
2022-11-15T16:01:37.977Z,52.20
2022-11-15T16:04:06.117Z,52.30
2022-11-15T16:06:38.628Z,52.40
2022-11-15T16:09:15.335Z,52.30
2022-11-15T16:11:44.148Z,52.40
2022-11-15T16:14:10.930Z,52.40
2022-11-15T16:16:37.992Z,52.50
2022-11-15T16:19:06.068Z,52.50
2022-11-15T16:21:32.768Z,52.60
2022-11-15T16:23:59.538Z,52.70
2022-11-15T16:26:28.024Z,52.60
2022-11-15T16:28:55.109Z,52.60
2022-11-15T16:31:21.958Z,52.60
2022-11-15T16:33:48.678Z,52.60
2022-11-15T16:36:23.406Z,52.60
2022-11-15T16:38:54.094Z,52.70
2022-11-15T16:41:20.845Z,52.70
2022-11-15T16:43:48.250Z,52.70
2022-11-15T16:46:18.570Z,52.70
2022-11-15T16:49:04.412Z,52.70
2022-11-15T16:51:35.416Z,52.60
2022-11-15T16:54:02.187Z,52.50
2022-11-15T16:56:41.537Z,52.50
2022-11-15T16:59:11.729Z,52.50
2022-11-15T17:01:38.879Z,52.40
2022-11-15T17:04:05.856Z,52.40
2022-11-15T17:06:32.582Z,52.40
2022-11-15T17:09:06.412Z,52.40
2022-11-15T17:11:33.371Z,52.30
2022-11-15T17:14:02.933Z,52.40
2022-11-15T17:16:30.295Z,52.30
2022-11-15T17:19:01.836Z,52.30
2022-11-15T17:21:45.680Z,52.20
2022-11-15T17:24:26.620Z,52.20
2022-11-15T17:26:53.349Z,52.20
2022-11-15T17:29:25.898Z,52.40
2022-11-15T17:31:52.672Z,52.30
2022-11-15T17:34:21.766Z,53.00
2022-11-15T17:36:49.237Z,52.40
2022-11-15T17:39:20.609Z,52.30
2022-11-15T17:41:47.624Z,52.40
2022-11-15T17:44:14.573Z,52.50
2022-11-15T17:46:41.357Z,52.60
2022-11-15T17:49:08.066Z,53.00
2022-11-15T17:51:34.775Z,52.60
2022-11-15T17:54:01.876Z,52.70
2022-11-15T17:56:29.978Z,52.70
2022-11-15T17:58:58.183Z,53.00
2022-11-15T18:01:27.561Z,53.00
2022-11-15T18:03:55.615Z,53.10
2022-11-15T18:06:23.923Z,53.20
2022-11-15T18:08:54.609Z,53.40
2022-11-15T18:11:23.365Z,53.50
2022-11-15T18:13:56.199Z,53.40
2022-11-15T18:16:24.652Z,53.50
2022-11-15T18:18:51.736Z,53.70
2022-11-15T18:21:20.143Z,53.60
2022-11-15T18:23:47.415Z,54.30
2022-11-15T18:26:16.432Z,53.60
2022-11-15T18:28:44.628Z,53.70
2022-11-15T18:31:17.557Z,53.80
2022-11-15T18:33:45.352Z,53.90
2022-11-15T18:36:13.751Z,53.80
2022-11-15T18:38:41.128Z,53.80
2022-11-15T18:41:10.297Z,53.80
2022-11-15T18:43:37.832Z,53.90
2022-11-15T18:46:06.548Z,53.90
2022-11-15T18:48:35.861Z,53.90
2022-11-15T18:51:05.253Z,53.80
2022-11-15T18:53:32.615Z,53.90
2022-11-15T18:56:03.408Z,53.90
2022-11-15T18:58:30.837Z,54.00
2022-11-15T19:01:01.484Z,53.90
2022-11-15T19:03:31.599Z,53.80
2022-11-15T19:06:03.491Z,53.70
2022-11-15T19:08:34.287Z,53.80
2022-11-15T19:11:06.674Z,53.90
2022-11-15T19:13:33.815Z,54.00
2022-11-15T19:16:01.983Z,53.90
2022-11-15T19:18:29.309Z,54.00
2022-11-15T19:20:56.394Z,54.10
2022-11-15T19:23:24.431Z,54.10
2022-11-15T19:25:54.753Z,54.00
2022-11-15T19:28:21.541Z,54.10
2022-11-15T19:30:48.327Z,53.90
2022-11-15T19:33:15.037Z,54.00
2022-11-15T19:35:41.957Z,53.90
2022-11-15T19:38:08.718Z,53.90
2022-11-15T19:40:37.014Z,54.00
2022-11-15T19:43:04.253Z,54.20
2022-11-15T19:45:30.971Z,54.50
2022-11-15T19:47:58.249Z,54.40
2022-11-15T19:50:25.317Z,54.30
2022-11-15T19:52:52.013Z,54.20
2022-11-15T19:55:18.745Z,54.40
2022-11-15T19:57:46.777Z,54.50
2022-11-15T20:00:13.892Z,54.40
2022-11-15T20:02:40.690Z,54.20
2022-11-15T20:05:08.121Z,54.10
2022-11-15T20:07:34.886Z,54.10
2022-11-15T20:10:01.628Z,54.20
2022-11-15T20:12:28.443Z,54.40
2022-11-15T20:14:56.493Z,54.40
2022-11-15T20:17:23.233Z,54.50
2022-11-15T20:19:49.991Z,54.60
2022-11-15T20:22:16.756Z,54.60
2022-11-15T20:24:43.537Z,54.60
2022-11-15T20:27:10.255Z,54.70
2022-11-15T20:29:37.614Z,54.90
2022-11-15T20:32:08.160Z,55.10
2022-11-15T20:34:34.871Z,55.20
2022-11-15T20:37:01.602Z,54.90
2022-11-15T20:39:28.374Z,54.70
2022-11-15T20:41:55.083Z,54.60
2022-11-15T20:44:21.812Z,54.90
2022-11-15T20:46:48.590Z,54.90
2022-11-15T20:49:16.689Z,55.00
2022-11-15T20:51:43.391Z,55.20
2022-11-15T20:54:10.752Z,55.00
2022-11-15T20:56:37.681Z,55.00
2022-11-15T20:59:04.469Z,54.70
2022-11-15T21:01:31.300Z,54.70
2022-11-15T21:03:58.142Z,54.60
2022-11-15T21:06:26.956Z,54.50
2022-11-15T21:08:54.959Z,54.40
2022-11-15T21:11:22.212Z,54.40
2022-11-15T21:13:48.897Z,54.50
2022-11-15T21:16:15.622Z,54.50
2022-11-15T21:18:42.866Z,54.80
2022-11-15T21:21:09.604Z,55.10
2022-11-15T21:23:37.702Z,55.30
2022-11-15T21:26:04.572Z,55.60
2022-11-15T21:28:31.489Z,55.60
2022-11-15T21:31:00.175Z,55.40
2022-11-15T21:33:27.707Z,55.10
2022-11-15T21:35:54.713Z,55.00
2022-11-15T21:38:21.838Z,55.10
2022-11-15T21:40:50.180Z,55.10
2022-11-15T21:43:17.103Z,55.20
2022-11-15T21:45:44.658Z,55.20
2022-11-15T21:48:11.589Z,55.10
2022-11-15T21:50:38.311Z,54.80
2022-11-15T21:53:05.028Z,54.70
2022-11-15T21:55:31.774Z,54.60
2022-11-15T21:57:59.804Z,54.80
2022-11-15T22:00:26.899Z,54.90
2022-11-15T22:02:53.668Z,55.30
2022-11-15T22:05:20.434Z,55.10
2022-11-15T22:07:47.164Z,55.00
2022-11-15T22:10:14.133Z,54.90
2022-11-15T22:12:40.930Z,54.80
2022-11-15T22:15:09.717Z,54.90
2022-11-15T22:17:36.447Z,54.50
2022-11-15T22:20:17.014Z,54.30
2022-11-15T22:22:50.309Z,54.20
2022-11-15T22:25:17.271Z,54.30
2022-11-15T22:27:44.054Z,54.30
2022-11-15T22:30:13.200Z,54.50
2022-11-15T22:43:28.912Z,54.50
2022-11-15T22:45:58.423Z,54.50
2022-11-15T22:48:28.032Z,54.40
2022-11-15T22:50:55.311Z,54.50
2022-11-15T22:53:22.930Z,54.60
2022-11-15T22:55:50.733Z,54.70
2022-11-15T22:58:17.565Z,55.00
2022-11-15T23:00:44.293Z,55.10
2022-11-15T23:03:12.466Z,55.00
2022-11-15T23:05:39.264Z,55.30
2022-11-15T23:08:06.052Z,55.30
2022-11-15T23:10:32.856Z,55.30
2022-11-15T23:13:03.659Z,55.10
2022-11-15T23:15:33.372Z,55.20
2022-11-15T23:18:00.278Z,55.00
2022-11-15T23:20:42.399Z,55.00
2022-11-15T23:23:11.657Z,55.00
2022-11-15T23:25:38.565Z,55.00
2022-11-15T23:28:05.851Z,55.00
2022-11-15T23:30:34.576Z,55.00
2022-11-15T23:33:01.367Z,55.10
2022-11-15T23:35:29.511Z,55.40
2022-11-15T23:37:56.270Z,54.90
2022-11-15T23:40:23.026Z,54.80
2022-11-15T23:42:49.751Z,54.70
2022-11-15T23:45:16.737Z,54.60
2022-11-15T23:47:43.602Z,54.50
2022-11-15T23:50:10.555Z,54.50
2022-11-15T23:52:38.623Z,54.50
2022-11-15T23:55:06.390Z,54.60
2022-11-15T23:57:33.163Z,54.50
